Terminal Aerodrome Forecast
Issued by NWS Huntsville, AL

Home | Current Version | Previous Version | Text Only | Print | Product List | Glossary On
Versions: 1 2 3 4 5 6 7 8 9 10 11 12 13 14 15 16 17
000
FTUS44 KHUN 230520
TAFHSV
TAF
KHSV 230520Z 2306/2406 16012G17KT 6SM -SHRA BR SCT010 BKN015 OVC040
     FM231500 20015G22KT P6SM VCSH BKN020
     FM231900 20017G25KT 5SM -SHRA BR BKN015 OVC025
      TEMPO 2321/2401 3SM TSRA BR BKN015CB
     FM240100 22014G22KT 5SM -SHRA BR BKN020=

USA.gov is the U.S. government's official web portal to all federal, state and local government web resources and services.